Time;durP1;ratioP1;P1;durP2;ratioP2;P2;SDS_P1;SDS_P2;PMS_P1;PMS_P2;Temp;Humidity;BMP_temperature;BMP_pressure;BME280_temperature;BME280_humidity;BME280_pressure;Samples;Min_cycle;Max_cycle;Signal;HPM_P1;HPM_P2
2023/04/16 00:01:12;;;;;;;2.90;1.50;;;8.10;99.90;;;;;;6219334;23;20024;-83
2023/04/16 00:03:38;;;;;;;2.50;1.80;;;8.20;99.90;;;;;;6169396;23;20020;-83
2023/04/16 00:06:04;;;;;;;5.20;2.07;;;8.20;99.90;;;;;;6246042;23;20345;-83
2023/04/16 00:08:30;;;;;;;2.53;1.33;;;8.10;99.90;;;;;;6193949;23;20558;-83
2023/04/16 00:10:55;;;;;;;2.90;1.10;;;8.10;99.90;;;;;;6169642;23;20251;-83
2023/04/16 00:13:21;;;;;;;3.53;2.13;;;8.10;99.90;;;;;;6194046;23;20344;-83
2023/04/16 00:15:47;;;;;;;2.90;1.87;;;8.10;99.90;;;;;;6245771;23;20020;-83
2023/04/16 00:18:13;;;;;;;3.93;1.53;;;8.00;99.90;;;;;;6193534;23;20436;-83
2023/04/16 00:20:38;;;;;;;6.20;2.00;;;8.00;99.90;;;;;;6219604;23;20016;-85
2023/04/16 00:23:04;;;;;;;1.43;1.13;;;8.00;99.90;;;;;;6219162;23;20013;-85
2023/04/16 00:25:30;;;;;;;2.97;1.37;;;7.90;99.90;;;;;;6194282;23;20030;-85
2023/04/16 00:27:55;;;;;;;3.03;1.70;;;8.00;99.90;;;;;;6193542;23;20027;-85
2023/04/16 00:30:21;;;;;;;2.10;1.33;;;7.90;99.90;;;;;;6219042;23;20016;-85
2023/04/16 00:32:47;;;;;;;13.03;1.93;;;8.00;99.90;;;;;;6246089;23;20310;-85
2023/04/16 00:35:13;;;;;;;4.77;1.47;;;8.00;99.90;;;;;;6169566;23;20436;-95
2023/04/16 00:37:38;;;;;;;3.70;1.63;;;8.00;99.90;;;;;;6169937;23;20016;-85
2023/04/16 00:40:05;;;;;;;3.40;1.47;;;7.90;99.90;;;;;;6219289;23;20008;-84
2023/04/16 00:42:30;;;;;;;2.22;1.15;;;7.90;99.90;;;;;;6193854;23;20061;-84
2023/04/16 00:44:56;;;;;;;2.03;1.07;;;7.90;99.90;;;;;;6194590;23;20495;-85
2023/04/16 00:47:22;;;;;;;4.13;1.83;;;7.90;99.90;;;;;;6193884;23;20023;-85
2023/04/16 00:49:48;;;;;;;1.53;1.23;;;8.00;99.90;;;;;;6169619;23;20023;-85
2023/04/16 00:52:14;;;;;;;2.35;1.52;;;8.00;99.90;;;;;;6193733;23;20408;-84
2023/04/16 00:54:40;;;;;;;2.58;1.55;;;8.00;99.90;;;;;;6219644;23;20103;-85
2023/04/16 00:57:06;;;;;;;2.30;1.07;;;7.90;99.90;;;;;;6219360;23;20056;-85
2023/04/16 00:59:32;;;;;;;6.63;1.20;;;7.90;99.90;;;;;;6218942;23;20020;-85
2023/04/16 01:01:57;;;;;;;3.00;1.30;;;8.00;99.90;;;;;;6194307;23;20251;-85
2023/04/16 01:04:23;;;;;;;3.60;1.43;;;7.90;99.90;;;;;;6219223;23;20314;-85
2023/04/16 01:06:50;;;;;;;1.37;1.23;;;7.90;99.90;;;;;;6219372;23;20031;-85
2023/04/16 01:09:16;;;;;;;4.15;2.40;;;7.90;99.90;;;;;;6219160;23;20016;-85
2023/04/16 01:11:41;;;;;;;2.20;1.38;;;7.90;99.90;;;;;;6194122;23;20052;-85
2023/04/16 01:14:07;;;;;;;2.93;1.77;;;7.90;99.90;;;;;;6219320;23;20452;-85
2023/04/16 01:16:33;;;;;;;3.13;1.20;;;7.90;99.90;;;;;;6193580;23;20073;-86
2023/04/16 01:18:58;;;;;;;3.43;1.93;;;7.90;99.90;;;;;;6169023;23;20023;-85
2023/04/16 01:21:25;;;;;;;3.27;2.30;;;7.90;99.90;;;;;;6193633;23;20016;-85
2023/04/16 01:23:51;;;;;;;3.42;1.40;;;7.90;99.90;;;;;;6219073;23;20087;-85
2023/04/16 01:26:16;;;;;;;3.23;1.87;;;7.90;99.90;;;;;;6218698;23;20489;-85
2023/04/16 01:28:42;;;;;;;3.03;1.63;;;7.90;99.90;;;;;;6193632;23;20047;-85
2023/04/16 01:31:08;;;;;;;3.97;1.23;;;7.80;99.90;;;;;;6219513;23;20020;-85
2023/04/16 01:33:33;;;;;;;2.03;1.50;;;7.80;99.90;;;;;;6219741;23;20103;-85
2023/04/16 01:35:59;;;;;;;3.53;1.43;;;7.80;99.90;;;;;;6220517;23;20035;-85
2023/04/16 01:38:25;;;;;;;4.33;2.50;;;7.80;99.90;;;;;;6195509;23;20024;-86
2023/04/16 01:40:56;;;;;;;4.17;1.40;;;7.80;99.90;;;;;;6195960;23;20017;-85
2023/04/16 01:43:22;;;;;;;3.40;1.40;;;7.80;99.90;;;;;;6215252;23;20031;-86
2023/04/16 01:45:47;;;;;;;3.40;1.87;;;7.80;99.90;;;;;;6215944;23;20091;-85
2023/04/16 01:48:13;;;;;;;2.10;1.67;;;7.70;99.90;;;;;;6190459;23;20449;-85
2023/04/16 01:50:39;;;;;;;1.70;1.37;;;7.80;99.90;;;;;;6190100;23;20016;-85
2023/04/16 01:53:08;;;;;;;10.20;1.88;;;7.70;99.90;;;;;;6215711;23;20021;-85
2023/04/16 01:55:34;;;;;;;5.47;1.48;;;7.70;99.90;;;;;;6190001;23;20482;-85
2023/04/16 01:58:00;;;;;;;3.50;2.17;;;7.70;99.90;;;;;;6165978;23;20051;-85
2023/04/16 02:00:28;;;;;;;3.40;1.40;;;7.70;99.90;;;;;;6190843;23;20039;-85
2023/04/16 02:02:54;;;;;;;4.60;1.55;;;7.70;99.90;;;;;;6215513;23;20016;-85
2023/04/16 02:05:20;;;;;;;1.97;0.90;;;7.70;99.90;;;;;;6190345;23;20020;-85
2023/04/16 02:07:46;;;;;;;2.50;2.03;;;7.70;99.90;;;;;;6215283;23;20027;-85
2023/04/16 02:10:11;;;;;;;4.33;1.57;;;7.70;99.90;;;;;;6165717;23;20109;-84
2023/04/16 02:12:37;;;;;;;2.17;1.43;;;7.70;99.90;;;;;;6165072;23;20021;-85
2023/04/16 02:15:06;;;;;;;4.23;2.00;;;7.70;99.90;;;;;;6215061;23;20035;-85
2023/04/16 02:17:32;;;;;;;3.70;1.48;;;7.70;99.90;;;;;;6216787;23;20023;-85
2023/04/16 02:19:57;;;;;;;2.57;2.37;;;7.60;99.90;;;;;;6190170;23;20040;-87
2023/04/16 02:22:23;;;;;;;3.60;1.80;;;7.70;99.90;;;;;;6190392;23;20073;-85
2023/04/16 02:24:50;;;;;;;2.00;1.90;;;7.60;99.90;;;;;;6190064;23;20024;-85
2023/04/16 02:27:15;;;;;;;4.80;2.10;;;7.60;99.90;;;;;;6190176;23;20021;-85
2023/04/16 02:29:41;;;;;;;4.07;1.53;;;7.60;99.90;;;;;;6165222;23;20036;-84
2023/04/16 02:32:07;;;;;;;3.50;1.93;;;7.60;99.90;;;;;;6215613;23;20039;-85
2023/04/16 02:34:33;;;;;;;5.30;2.37;;;7.60;99.90;;;;;;6190168;23;20070;-85
2023/04/16 02:36:59;;;;;;;7.30;1.55;;;7.60;99.90;;;;;;6215308;23;20013;-87
2023/04/16 02:39:25;;;;;;;2.23;2.03;;;7.60;99.90;;;;;;6190649;23;20062;-85
2023/04/16 02:41:51;;;;;;;1.63;0.77;;;7.60;99.90;;;;;;6216686;23;20017;-85
2023/04/16 02:44:17;;;;;;;2.25;1.80;;;7.50;99.90;;;;;;6214468;23;20596;-84
2023/04/16 02:46:42;;;;;;;1.05;1.05;;;7.50;99.90;;;;;;6189582;23;20024;-85
2023/04/16 02:49:08;;;;;;;3.77;1.60;;;7.50;99.90;;;;;;6215326;23;20013;-85
2023/04/16 02:51:34;;;;;;;2.63;1.73;;;7.50;99.90;;;;;;6189888;23;20066;-85
2023/04/16 02:54:01;;;;;;;2.00;1.00;;;7.50;99.90;;;;;;6215326;23;20017;-85
2023/04/16 02:56:27;;;;;;;9.60;1.95;;;7.50;99.90;;;;;;6216712;23;20020;-85
2023/04/16 02:58:53;;;;;;;2.40;1.17;;;7.50;99.90;;;;;;6189931;23;20322;-85
2023/04/16 03:01:19;;;;;;;1.70;1.27;;;7.50;99.90;;;;;;6190056;23;20016;-85
2023/04/16 03:03:44;;;;;;;6.33;2.27;;;7.50;99.90;;;;;;6214785;23;20016;-85
2023/04/16 03:06:10;;;;;;;3.30;1.67;;;7.50;99.90;;;;;;6189663;23;20095;-85
2023/04/16 03:08:36;;;;;;;2.20;1.77;;;7.60;99.90;;;;;;6189908;23;20017;-85
2023/04/16 03:11:01;;;;;;;2.73;1.40;;;7.60;99.90;;;;;;6165310;23;20040;-84
2023/04/16 03:13:27;;;;;;;4.27;1.87;;;7.50;99.90;;;;;;6216463;23;20017;-85
2023/04/16 03:15:53;;;;;;;5.63;1.73;;;7.60;99.90;;;;;;6165036;23;20013;-85
2023/04/16 03:18:19;;;;;;;3.33;1.43;;;7.50;99.90;;;;;;6189909;23;20013;-85
2023/04/16 03:20:44;;;;;;;3.27;1.73;;;7.60;99.90;;;;;;6214067;23;20352;-85
2023/04/16 03:23:10;;;;;;;3.43;1.63;;;7.50;99.90;;;;;;6215007;23;20023;-84
2023/04/16 03:25:36;;;;;;;3.63;1.37;;;7.60;99.90;;;;;;6214707;23;20380;-85
2023/04/16 03:28:02;;;;;;;5.20;1.73;;;7.60;99.90;;;;;;6164619;23;20016;-84
2023/04/16 03:30:28;;;;;;;1.98;1.60;;;7.50;99.90;;;;;;6165395;23;20031;-84
2023/04/16 03:32:54;;;;;;;2.83;1.37;;;7.60;99.90;;;;;;6214680;23;20341;-85
2023/04/16 03:35:20;;;;;;;4.03;2.63;;;7.50;99.90;;;;;;6189368;23;20072;-85
2023/04/16 03:37:46;;;;;;;3.30;1.40;;;7.60;99.90;;;;;;6164865;23;20286;-85
2023/04/16 03:40:12;;;;;;;3.10;1.90;;;7.60;99.90;;;;;;6214643;23;20016;-85
2023/04/16 03:42:37;;;;;;;3.13;1.83;;;7.60;99.90;;;;;;6165027;23;20020;-85
2023/04/16 03:45:04;;;;;;;5.03;1.87;;;7.60;99.90;;;;;;6189084;23;20445;-84
2023/04/16 03:47:30;;;;;;;4.13;2.03;;;7.60;99.90;;;;;;6214577;23;20056;-85
2023/04/16 03:49:55;;;;;;;4.03;1.50;;;7.60;99.90;;;;;;6189195;23;20040;-85
2023/04/16 03:52:21;;;;;;;4.47;1.20;;;7.60;99.90;;;;;;6214475;23;20013;-85
2023/04/16 03:54:46;;;;;;;3.03;1.63;;;7.60;99.90;;;;;;6189640;23;20048;-85
2023/04/16 03:57:12;;;;;;;2.63;1.03;;;7.60;99.90;;;;;;6214048;23;20452;-85
2023/04/16 03:59:38;;;;;;;3.50;1.20;;;7.60;99.90;;;;;;6189428;23;20024;-85
2023/04/16 04:02:04;;;;;;;3.50;1.77;;;7.60;99.90;;;;;;6189118;23;20016;-85
2023/04/16 04:04:29;;;;;;;2.63;1.43;;;7.60;99.90;;;;;;6189675;23;20071;-85
2023/04/16 04:06:55;;;;;;;5.67;2.23;;;7.60;99.90;;;;;;6189195;23;20021;-85
2023/04/16 04:09:21;;;;;;;5.57;1.20;;;7.60;99.90;;;;;;6189813;23;20095;-85
2023/04/16 04:11:46;;;;;;;2.40;1.57;;;7.60;99.90;;;;;;6189363;23;20024;-85
2023/04/16 04:14:12;;;;;;;2.13;1.50;;;7.60;99.90;;;;;;6189659;23;20384;-85
2023/04/16 04:16:38;;;;;;;4.27;1.23;;;7.60;99.90;;;;;;6214422;23;20016;-85
2023/04/16 04:19:03;;;;;;;1.73;1.20;;;8.00;99.90;;;;;;6214573;23;20020;-85
2023/04/16 04:21:30;;;;;;;5.80;1.63;;;7.60;99.90;;;;;;6164746;23;20104;-84
2023/04/16 04:23:56;;;;;;;2.72;1.30;;;7.60;99.90;;;;;;6213917;23;20452;-85
2023/04/16 04:26:21;;;;;;;4.13;2.07;;;7.40;99.90;;;;;;6189098;23;20084;-84
2023/04/16 04:28:47;;;;;;;2.83;1.97;;;7.60;99.90;;;;;;6214271;23;20448;-85
2023/04/16 04:31:13;;;;;;;3.73;1.90;;;7.60;99.90;;;;;;6214563;23;20079;-85
2023/04/16 04:33:39;;;;;;;2.90;1.43;;;7.60;99.90;;;;;;6214466;23;20016;-84
2023/04/16 04:36:05;;;;;;;5.00;2.00;;;7.50;99.90;;;;;;6189021;23;20440;-85
2023/04/16 04:38:31;;;;;;;5.03;2.17;;;7.60;99.90;;;;;;6189262;23;20016;-85
2023/04/16 04:40:58;;;;;;;1.80;1.47;;;7.50;99.90;;;;;;6214037;23;20021;-84
2023/04/16 04:43:24;;;;;;;5.95;2.47;;;7.60;99.90;;;;;;6214414;23;20059;-85
2023/04/16 04:45:50;;;;;;;4.63;1.43;;;7.60;99.90;;;;;;6189388;23;20444;-85
2023/04/16 04:48:15;;;;;;;2.03;1.33;;;7.60;99.90;;;;;;6188969;23;20059;-85
2023/04/16 04:50:43;;;;;;;3.70;1.10;;;7.50;99.90;;;;;;6189333;23;20066;-85
2023/04/16 04:53:09;;;;;;;1.75;1.10;;;7.50;99.90;;;;;;6164666;23;20017;-85
2023/04/16 04:55:36;;;;;;;1.52;1.40;;;7.60;99.90;;;;;;6214919;23;20027;-85
2023/04/16 04:58:03;;;;;;;2.35;1.50;;;7.50;99.90;;;;;;6189400;23;20028;-85
2023/04/16 05:00:30;;;;;;;3.75;2.05;;;7.60;99.90;;;;;;6189057;23;20154;-85
2023/04/16 05:02:55;;;;;;;4.88;1.45;;;7.50;99.90;;;;;;6213698;23;20012;-85
2023/04/16 05:05:21;;;;;;;1.67;1.50;;;7.50;99.90;;;;;;6164392;23;20020;-85
2023/04/16 05:07:47;;;;;;;3.60;1.67;;;7.50;99.90;;;;;;6164277;23;20023;-85
2023/04/16 05:10:13;;;;;;;3.60;1.47;;;7.50;99.90;;;;;;6191193;23;20020;-85
2023/04/16 05:12:39;;;;;;;1.25;0.90;;;7.50;99.90;;;;;;6216435;23;20464;-84
2023/04/16 05:15:08;;;;;;;3.27;1.63;;;7.50;99.90;;;;;;6191012;23;20021;-85
2023/04/16 05:17:34;;;;;;;2.85;1.40;;;7.50;99.90;;;;;;6217896;23;20028;-84
2023/04/16 05:20:00;;;;;;;2.65;1.23;;;7.50;99.90;;;;;;6165521;23;20044;-84
2023/04/16 05:22:25;;;;;;;1.57;1.13;;;7.60;99.90;;;;;;6215209;23;20016;-85
2023/04/16 05:24:51;;;;;;;3.33;1.63;;;7.60;99.90;;;;;;6216105;23;20341;-85
2023/04/16 05:27:17;;;;;;;2.33;1.27;;;7.50;99.90;;;;;;6190751;23;20013;-84
2023/04/16 05:29:42;;;;;;;5.67;2.17;;;7.60;99.90;;;;;;6216235;23;20318;-84
2023/04/16 05:32:08;;;;;;;4.13;1.60;;;7.60;99.90;;;;;;6190923;23;20044;-84
2023/04/16 05:34:34;;;;;;;3.00;1.93;;;7.50;99.90;;;;;;6190416;23;20021;-84
2023/04/16 05:37:00;;;;;;;6.80;1.80;;;7.50;99.90;;;;;;6215538;23;20024;-85
2023/04/16 05:39:25;;;;;;;3.65;1.90;;;7.60;99.90;;;;;;6166366;23;20441;-84
2023/04/16 05:41:51;;;;;;;3.07;1.13;;;7.60;99.90;;;;;;6215179;23;20021;-85
2023/04/16 05:44:17;;;;;;;3.07;1.17;;;7.60;99.90;;;;;;6190464;23;20017;-84
2023/04/16 05:46:43;;;;;;;2.77;1.00;;;7.60;99.90;;;;;;6215821;23;20059;-84
2023/04/16 05:49:09;;;;;;;1.97;1.20;;;7.60;99.90;;;;;;6190304;23;20059;-86
2023/04/16 05:51:35;;;;;;;3.58;1.05;;;7.60;99.90;;;;;;6215717;23;20048;-85
2023/04/16 05:54:01;;;;;;;4.90;1.77;;;7.60;99.90;;;;;;6190039;23;20099;-85
2023/04/16 05:56:27;;;;;;;2.30;1.70;;;7.70;99.90;;;;;;6166048;23;20099;-85
2023/04/16 05:58:52;;;;;;;3.67;1.63;;;7.70;99.90;;;;;;6165790;23;20039;-85
2023/04/16 06:01:18;;;;;;;1.87;1.63;;;7.70;99.90;;;;;;6190663;23;20067;-85
2023/04/16 06:03:44;;;;;;;2.23;1.33;;;7.70;99.90;;;;;;6190636;23;20020;-85
2023/04/16 06:06:10;;;;;;;4.57;1.80;;;7.80;99.90;;;;;;6190445;23;20219;-84
2023/04/16 06:08:35;;;;;;;3.43;1.70;;;7.80;99.90;;;;;;6215359;23;20017;-85
2023/04/16 06:11:02;;;;;;;4.03;1.60;;;7.90;99.90;;;;;;6215703;23;20441;-84
2023/04/16 06:13:27;;;;;;;2.20;1.50;;;7.90;99.90;;;;;;6165347;23;20368;-84
2023/04/16 06:15:53;;;;;;;1.53;0.90;;;8.00;99.90;;;;;;6215521;23;20087;-85
2023/04/16 06:18:19;;;;;;;2.30;1.43;;;8.00;99.90;;;;;;6190378;23;20024;-85
2023/04/16 06:20:45;;;;;;;3.40;1.43;;;8.00;99.90;;;;;;6164728;23;20023;-85
2023/04/16 06:23:10;;;;;;;2.27;1.33;;;8.00;99.90;;;;;;6189321;23;20271;-86
2023/04/16 06:25:36;;;;;;;4.47;1.33;;;8.00;99.90;;;;;;6217232;23;20023;-84
2023/04/16 06:28:02;;;;;;;2.87;1.90;;;8.00;99.90;;;;;;6190514;23;20038;-85
2023/04/16 06:30:28;;;;;;;4.20;1.57;;;8.00;99.90;;;;;;6215447;23;20534;-85
2023/04/16 06:32:54;;;;;;;1.60;1.27;;;8.00;99.90;;;;;;6190479;23;20095;-92
2023/04/16 06:35:19;;;;;;;3.15;1.60;;;8.00;99.90;;;;;;6215508;23;20013;-86
2023/04/16 06:37:45;;;;;;;3.70;1.17;;;8.00;99.90;;;;;;6190973;23;20532;-86
2023/04/16 06:40:11;;;;;;;5.82;2.55;;;8.10;99.90;;;;;;6190109;23;20047;-86
2023/04/16 06:42:37;;;;;;;2.45;1.52;;;8.00;99.90;;;;;;6215252;23;20445;-86
2023/04/16 06:45:03;;;;;;;1.73;1.30;;;8.00;99.90;;;;;;6164863;23;20025;-86
2023/04/16 06:47:29;;;;;;;3.70;1.33;;;8.00;99.90;;;;;;6214986;23;20021;-86
2023/04/16 06:49:55;;;;;;;1.27;1.07;;;8.00;99.90;;;;;;6214497;23;20070;-86
2023/04/16 06:52:21;;;;;;;3.47;1.40;;;8.00;99.90;;;;;;6190467;23;20059;-86
2023/04/16 06:54:47;;;;;;;3.67;1.47;;;8.00;99.90;;;;;;6190655;23;20444;-86
2023/04/16 06:57:13;;;;;;;3.70;1.67;;;8.00;99.90;;;;;;6189993;23;20052;-86
2023/04/16 06:59:38;;;;;;;5.90;2.53;;;8.00;99.90;;;;;;6190330;23;20028;-86
2023/04/16 07:02:04;;;;;;;2.50;1.40;;;8.00;99.90;;;;;;6215067;23;20024;-87
2023/04/16 07:04:30;;;;;;;2.33;1.57;;;8.00;99.90;;;;;;6215571;23;20020;-85
2023/04/16 07:06:56;;;;;;;2.47;1.03;;;8.10;99.90;;;;;;6189724;23;20063;-86
2023/04/16 07:09:21;;;;;;;3.33;1.67;;;8.10;99.90;;;;;;6214528;23;20515;-86
2023/04/16 07:11:47;;;;;;;1.17;1.07;;;8.10;99.90;;;;;;6216300;23;20025;-86
2023/04/16 07:14:13;;;;;;;0.90;0.90;;;8.10;99.90;;;;;;6214571;23;20019;-86
2023/04/16 07:16:39;;;;;;;1.80;1.30;;;8.10;99.90;;;;;;6216026;23;20013;-86
2023/04/16 07:19:05;;;;;;;2.83;2.03;;;8.10;99.90;;;;;;6188928;23;20508;-86
2023/04/16 07:21:31;;;;;;;1.77;1.03;;;8.10;99.90;;;;;;6188962;23;20025;-86
2023/04/16 07:23:56;;;;;;;3.60;1.40;;;8.20;99.90;;;;;;6214778;23;20017;-86
2023/04/16 07:26:22;;;;;;;4.47;1.60;;;8.20;99.90;;;;;;6213981;23;20016;-86
2023/04/16 07:28:48;;;;;;;2.97;1.77;;;8.30;99.90;;;;;;6189943;23;20460;-86
2023/04/16 07:31:14;;;;;;;3.87;1.77;;;8.30;99.90;;;;;;6213687;23;20013;-86
2023/04/16 07:33:43;;;;;;;1.23;1.13;;;8.40;99.90;;;;;;6189887;23;20021;-86
2023/04/16 07:36:08;;;;;;;1.80;1.05;;;8.40;99.90;;;;;;6164972;23;20504;-86
2023/04/16 07:38:34;;;;;;;1.63;1.23;;;8.40;99.90;;;;;;6213993;23;20052;-86
2023/04/16 07:41:00;;;;;;;1.83;1.17;;;8.40;99.90;;;;;;6189937;23;20086;-86
2023/04/16 07:43:26;;;;;;;3.65;2.47;;;8.40;99.90;;;;;;6213813;23;20031;-87
2023/04/16 07:45:51;;;;;;;5.20;1.67;;;8.50;99.90;;;;;;6139643;23;20020;-86
2023/04/16 07:48:17;;;;;;;4.53;1.70;;;8.50;99.90;;;;;;6165735;23;20457;-86
2023/04/16 07:50:43;;;;;;;2.97;1.70;;;8.60;99.90;;;;;;6214603;23;20013;-86
2023/04/16 07:53:09;;;;;;;4.23;2.13;;;8.60;99.90;;;;;;6165039;23;20023;-85
2023/04/16 07:55:35;;;;;;;1.43;1.17;;;8.70;99.90;;;;;;6189791;23;20051;-86
2023/04/16 07:58:01;;;;;;;3.40;1.20;;;9.00;99.90;;;;;;6214014;23;20016;-86
2023/04/16 08:00:28;;;;;;;1.90;1.58;;;8.80;99.90;;;;;;6188820;23;20028;-86
2023/04/16 08:02:53;;;;;;;1.65;1.17;;;8.90;99.90;;;;;;6215879;23;20091;-86
2023/04/16 08:05:19;;;;;;;1.97;1.40;;;8.90;99.90;;;;;;6216037;23;20024;-86
2023/04/16 08:07:45;;;;;;;2.20;1.13;;;8.90;99.90;;;;;;6214616;23;20086;-86
2023/04/16 08:10:11;;;;;;;2.20;1.87;;;9.00;99.90;;;;;;6214028;23;20052;-86
2023/04/16 08:12:37;;;;;;;2.40;1.67;;;9.10;99.90;;;;;;6214515;23;20017;-86
2023/04/16 08:15:03;;;;;;;1.67;1.40;;;9.10;99.90;;;;;;6190050;23;20020;-85
2023/04/16 08:17:28;;;;;;;5.93;1.52;;;9.20;99.90;;;;;;6188458;23;20027;-86
2023/04/16 08:19:54;;;;;;;3.33;1.43;;;9.20;99.90;;;;;;6190099;23;20016;-86
2023/04/16 08:22:21;;;;;;;3.10;1.47;;;8.80;99.90;;;;;;6191511;23;20021;-85
2023/04/16 08:24:47;;;;;;;1.50;1.17;;;9.40;99.90;;;;;;6190324;23;20021;-86
2023/04/16 08:27:12;;;;;;;1.50;1.23;;;9.40;99.90;;;;;;6189879;23;20017;-86
2023/04/16 08:29:38;;;;;;;1.93;1.67;;;9.50;99.90;;;;;;6216398;23;20017;-85
2023/04/16 08:32:04;;;;;;;4.30;1.30;;;9.60;99.90;;;;;;6190246;23;20047;-86
2023/04/16 08:34:30;;;;;;;2.25;1.95;;;9.70;99.90;;;;;;6216167;23;20090;-86
2023/04/16 08:36:56;;;;;;;2.83;1.13;;;9.80;99.90;;;;;;6165534;23;20099;-86
2023/04/16 08:39:21;;;;;;;2.17;1.60;;;9.90;99.90;;;;;;6188782;23;20070;-86
2023/04/16 08:41:48;;;;;;;1.97;1.43;;;10.00;99.90;;;;;;6189046;23;20020;-86
2023/04/16 08:44:27;;;;;;;1.90;1.40;;;10.20;99.90;;;;;;6190704;23;20463;-86
2023/04/16 08:46:57;;;;;;;1.80;1.60;;;10.40;99.90;;;;;;6216168;23;20043;-86
2023/04/16 08:49:27;;;;;;;4.53;1.38;;;10.60;99.90;;;;;;6215850;23;20019;-86
2023/04/16 08:51:54;;;;;;;2.72;2.53;;;10.80;99.90;;;;;;6217492;23;20009;-86
2023/04/16 08:54:38;;;;;;;3.72;1.92;;;11.00;99.90;;;;;;6215765;23;20021;-86
2023/04/16 08:57:09;;;;;;;2.42;1.48;;;11.10;99.90;;;;;;6216026;23;20372;-86
2023/04/16 08:59:35;;;;;;;2.20;1.48;;;11.20;99.90;;;;;;6215686;23;20028;-86
2023/04/16 09:02:01;;;;;;;;;;;11.30;99.90;;;;;;6166697;23;20472;-86
2023/04/16 09:04:27;;;;;;;2.53;1.63;;;11.30;99.90;;;;;;6241137;23;19916;-86
2023/04/16 09:06:56;;;;;;;2.03;1.85;;;11.50;99.90;;;;;;6215503;23;20020;-86
2023/04/16 09:09:22;;;;;;;3.53;2.17;;;11.60;99.90;;;;;;6216387;23;20091;-86
2023/04/16 09:11:52;;;;;;;2.70;1.83;;;11.70;99.90;;;;;;6217303;23;20046;-85
2023/04/16 09:14:18;;;;;;;2.17;1.33;;;11.70;99.90;;;;;;6216877;23;20016;-85
2023/04/16 09:16:46;;;;;;;3.08;1.40;;;11.80;99.90;;;;;;6219444;23;20066;-86
2023/04/16 09:19:13;;;;;;;4.85;2.55;;;11.90;99.90;;;;;;6218177;23;20020;-86
2023/04/16 09:21:40;;;;;;;1.77;1.15;;;12.10;99.90;;;;;;6220205;23;20032;-86
2023/04/16 09:24:08;;;;;;;2.55;1.70;;;12.20;99.90;;;;;;6218205;23;20100;-86
2023/04/16 09:26:34;;;;;;;2.85;1.60;;;12.30;99.90;;;;;;6217267;23;20019;-86
2023/04/16 09:29:00;;;;;;;2.83;1.52;;;12.40;99.90;;;;;;6216131;23;20025;-86
2023/04/16 09:31:26;;;;;;;1.50;1.17;;;12.50;99.90;;;;;;6215700;23;20021;-86
2023/04/16 09:34:04;;;;;;;1.63;1.20;;;12.50;99.90;;;;;;6217677;23;20012;-86
2023/04/16 09:36:31;;;;;;;2.25;1.50;;;12.50;99.90;;;;;;6190654;23;20306;-86
2023/04/16 09:38:58;;;;;;;2.97;1.35;;;12.60;99.90;;;;;;6220571;23;20441;-86
2023/04/16 09:41:26;;;;;;;;;;;12.70;99.90;;;;;;6192393;23;20026;-86
2023/04/16 09:43:58;;;;;;;2.47;1.98;;;12.80;99.90;;;;;;6191765;23;19923;-86
2023/04/16 09:46:34;;;;;;;3.75;2.35;;;12.90;99.90;;;;;;6190860;23;20028;-86
2023/04/16 09:49:12;;;;;;;1.58;1.42;;;13.00;99.90;;;;;;6216270;23;20350;-86
2023/04/16 09:51:51;;;;;;;2.25;1.40;;;13.00;99.90;;;;;;6194571;23;20021;-87
2023/04/16 09:54:19;;;;;;;2.03;1.33;;;13.10;99.90;;;;;;6193288;23;20017;-93
2023/04/16 09:56:46;;;;;;;3.15;1.77;;;13.20;99.90;;;;;;6218066;23;20106;-86
2023/04/16 09:59:18;;;;;;;2.70;1.75;;;13.40;99.90;;;;;;6218528;23;20021;-86
2023/04/16 10:01:48;;;;;;;2.45;1.48;;;13.50;99.90;;;;;;6191616;23;20099;-86
2023/04/16 10:04:14;;;;;;;2.38;1.60;;;13.60;99.90;;;;;;6215943;23;20088;-86
2023/04/16 10:06:40;;;;;;;2.20;1.88;;;13.60;99.90;;;;;;6216817;23;20108;-87
2023/04/16 10:09:07;;;;;;;3.05;1.27;;;13.60;99.90;;;;;;6166572;23;20024;-87
2023/04/16 10:11:34;;;;;;;3.55;1.90;;;13.60;99.90;;;;;;6190557;23;20016;-86
2023/04/16 10:14:00;;;;;;;2.33;1.67;;;13.70;99.90;;;;;;6190874;23;20021;-86
2023/04/16 10:16:26;;;;;;;2.05;1.55;;;13.80;99.90;;;;;;6216122;23;20020;-87
2023/04/16 10:18:53;;;;;;;2.70;1.95;;;13.90;99.90;;;;;;6215229;23;20044;-86
2023/04/16 10:21:20;;;;;;;2.95;1.70;;;13.90;99.90;;;;;;6215615;23;20454;-86
2023/04/16 10:23:48;;;;;;;1.67;1.48;;;13.90;99.90;;;;;;6216744;23;20063;-86
2023/04/16 10:26:17;;;;;;;3.15;2.05;;;14.00;99.90;;;;;;6215500;23;20318;-87
2023/04/16 10:28:44;;;;;;;2.10;1.63;;;14.10;99.90;;;;;;6216669;23;20012;-86
2023/04/16 10:31:11;;;;;;;1.80;1.63;;;14.20;99.90;;;;;;6217198;23;20031;-86
2023/04/16 10:33:40;;;;;;;2.13;1.58;;;14.30;99.90;;;;;;6189970;23;20031;-86
2023/04/16 10:36:11;;;;;;;1.85;1.38;;;14.30;99.90;;;;;;6215114;23;20017;-86
2023/04/16 10:38:48;;;;;;;2.42;2.20;;;14.50;99.90;;;;;;6189778;23;20021;-86
2023/04/16 10:41:14;;;;;;;;;;;14.60;99.90;;;;;;6216160;23;20333;-86
2023/04/16 10:43:45;;;;;;;2.50;1.38;;;14.70;99.90;;;;;;6189691;23;19927;-86
2023/04/16 10:46:29;;;;;;;1.33;1.23;;;14.80;99.90;;;;;;6215188;23;20070;-86
2023/04/16 10:48:59;;;;;;;3.10;1.30;;;14.70;99.90;;;;;;6215092;23;20024;-87
2023/04/16 10:51:31;;;;;;;2.58;1.73;;;14.70;99.90;;;;;;6189896;23;20118;-87
2023/04/16 10:54:01;;;;;;;2.78;2.08;;;14.70;99.90;;;;;;6215204;23;20020;-86
2023/04/16 10:56:31;;;;;;;2.33;1.52;;;14.80;99.90;;;;;;6216689;23;20483;-87
2023/04/16 10:58:57;;;;;;;2.65;1.55;;;14.90;99.90;;;;;;6215346;23;20099;-87
2023/04/16 11:01:31;;;;;;;1.98;1.33;;;14.80;99.90;;;;;;6215360;23;20059;-86
2023/04/16 11:04:21;;;;;;;3.03;1.77;;;14.90;99.90;;;;;;6215493;23;20012;-87
2023/04/16 11:07:15;;;;;;;1.40;0.93;;;15.00;99.90;;;;;;6189314;23;20021;-86
2023/04/16 11:09:49;;;;;;;2.33;1.88;;;15.10;99.90;;;;;;6189556;23;20101;-87
2023/04/16 11:12:26;;;;;;;2.88;1.52;;;15.20;99.90;;;;;;6216827;23;20314;-86
2023/04/16 11:15:02;;;;;;;1.03;0.90;;;15.30;99.90;;;;;;6214693;23;20028;-87
2023/04/16 11:17:34;;;;;;;;;;;15.40;99.90;;;;;;6215581;23;20055;-87
2023/04/16 11:20:00;;;;;;;1.92;1.83;;;15.40;99.90;;;;;;6189443;23;20359;-87
2023/04/16 11:22:26;;;;;;;2.13;1.42;;;15.50;99.90;;;;;;6216730;23;20020;-86
2023/04/16 11:24:55;;;;;;;2.90;1.30;;;15.50;99.90;;;;;;6214124;23;20525;-86
2023/04/16 11:27:25;;;;;;;1.70;1.58;;;15.60;99.90;;;;;;6214848;23;20021;-86
2023/04/16 11:29:59;;;;;;;2.45;1.73;;;15.60;99.90;;;;;;6214360;23;20024;-86
2023/04/16 11:32:25;;;;;;;2.15;1.40;;;15.70;99.90;;;;;;6189958;23;20055;-87
2023/04/16 11:34:50;;;;;;;1.45;1.05;;;15.80;99.90;;;;;;6216003;23;20021;-86
2023/04/16 11:37:30;;;;;;;2.25;2.05;;;15.90;99.90;;;;;;6190062;23;20066;-87
2023/04/16 11:39:55;;;;;;;2.30;1.58;;;15.90;99.90;;;;;;6216866;23;20055;-85
2023/04/16 11:42:22;;;;;;;1.35;1.25;;;15.90;99.90;;;;;;6217013;23;20024;-92
2023/04/16 11:44:55;;;;;;;1.98;1.35;;;15.90;99.90;;;;;;6214659;23;20013;-87
2023/04/16 11:47:22;;;;;;;3.70;1.65;;;15.90;99.90;;;;;;6218651;23;20389;-85
2023/04/16 11:49:48;;;;;;;2.20;1.95;;;15.80;99.90;;;;;;6214963;23;20012;-87
2023/04/16 11:52:34;;;;;;;1.92;1.30;;;15.80;99.90;;;;;;6216115;23;20369;-87
2023/04/16 11:55:01;;;;;;;2.72;2.00;;;15.80;99.90;;;;;;6189535;23;20020;-87
2023/04/16 11:57:31;;;;;;;6.45;1.80;;;15.80;99.90;;;;;;6214019;23;20180;-87
2023/04/16 11:59:58;;;;;;;1.70;1.30;;;15.80;99.90;;;;;;6216412;23;20345;-87
2023/04/16 12:02:49;;;;;;;1.60;1.50;;;15.80;99.90;;;;;;6214742;23;20017;-87
2023/04/16 12:05:33;;;;;;;1.83;1.52;;;15.80;99.90;;;;;;6214996;23;20016;-87
2023/04/16 12:08:02;;;;;;;3.28;1.77;;;15.90;99.90;;;;;;6214795;23;20155;-86
2023/04/16 12:10:28;;;;;;;3.67;1.65;;;16.00;99.90;;;;;;6214340;23;20016;-87
2023/04/16 12:13:08;;;;;;;2.25;1.67;;;16.10;99.90;;;;;;6214810;23;20548;-86
2023/04/16 12:15:47;;;;;;;2.28;1.45;;;16.20;99.90;;;;;;6214985;23;20020;-90
2023/04/16 12:18:17;;;;;;;1.58;1.17;;;16.30;99.90;;;;;;6214291;23;20021;-87
2023/04/16 12:20:45;;;;;;;2.25;1.27;;;16.20;99.90;;;;;;6215719;23;20091;-87
2023/04/16 12:23:29;;;;;;;1.90;1.70;;;16.20;99.90;;;;;;6214428;23;20023;-87
2023/04/16 12:25:58;;;;;;;2.25;1.30;;;16.20;99.90;;;;;;6214119;23;20449;-87
2023/04/16 12:28:33;;;;;;;2.10;1.00;;;16.30;99.90;;;;;;6214496;23;20021;-87
2023/04/16 12:30:59;;;;;;;1.83;1.50;;;16.50;99.90;;;;;;6213828;23;20491;-87
2023/04/16 12:33:25;;;;;;;3.47;2.05;;;16.50;99.90;;;;;;6189396;23;20020;-87
2023/04/16 12:35:51;;;;;;;3.05;2.17;;;16.60;99.90;;;;;;6214109;23;20441;-87
2023/04/16 12:38:17;;;;;;;1.85;1.10;;;16.60;99.90;;;;;;6216632;23;20017;-87
2023/04/16 12:40:43;;;;;;;1.98;1.33;;;16.80;99.90;;;;;;6188655;23;20013;-87
2023/04/16 12:43:09;;;;;;;1.67;1.08;;;17.00;99.90;;;;;;6214011;23;20012;-87
2023/04/16 12:45:35;;;;;;;1.80;1.05;;;17.10;99.90;;;;;;6213532;23;20020;-87
2023/04/16 12:48:01;;;;;;;2.03;1.70;;;17.10;99.90;;;;;;6215641;23;20031;-87
2023/04/16 12:50:27;;;;;;;3.53;1.98;;;17.00;99.90;;;;;;6214845;23;20013;-87
2023/04/16 12:52:55;;;;;;;2.53;1.90;;;17.00;99.90;;;;;;6213795;23;20349;-87
2023/04/16 12:55:20;;;;;;;2.58;1.20;;;16.90;99.90;;;;;;6214017;23;20027;-86